Time;durP1;ratioP1;P1;durP2;ratioP2;P2;SDS_P1;SDS_P2;PMS_P1;PMS_P2;Temp;Humidity;BMP_temperature;BMP_pressure;BME280_temperature;BME280_humidity;BME280_pressure;Samples;Min_cycle;Max_cycle;Signal;HPM_P1;HPM_P2
2021/09/19 00:00:19;;;;;;;6.40;6.00;;;16.80;35.40;;;;;;10437155;28;20234;-76
2021/09/19 00:05:24;;;;;;;7.60;6.87;;;16.70;35.50;;;;;;10430770;28;20233;-76
2021/09/19 00:10:27;;;;;;;7.50;6.93;;;16.70;35.70;;;;;;10433464;28;20897;-76
2021/09/19 00:15:31;;;;;;;7.80;7.17;;;16.70;35.50;;;;;;10425684;28;20222;-76
2021/09/19 00:20:35;;;;;;;6.13;5.63;;;16.60;35.50;;;;;;10435283;28;20245;-75
2021/09/19 00:25:39;;;;;;;5.87;5.37;;;16.50;35.70;;;;;;10432255;28;20590;-76
2021/09/19 00:30:43;;;;;;;6.73;6.17;;;16.40;35.70;;;;;;10435417;28;20225;-76
2021/09/19 00:35:48;;;;;;;6.77;6.27;;;16.30;35.80;;;;;;10424634;28;20320;-76
2021/09/19 00:40:51;;;;;;;6.33;5.87;;;16.30;36.00;;;;;;10439463;28;20229;-76
2021/09/19 00:45:54;;;;;;;6.20;5.77;;;16.20;35.80;;;;;;10437025;28;20230;-77
2021/09/19 00:51:01;;;;;;;6.53;6.03;;;16.10;36.00;;;;;;10435423;28;20320;-78
2021/09/19 00:56:07;;;;;;;6.33;5.83;;;16.10;36.30;;;;;;10429606;28;20226;-76
2021/09/19 01:01:10;;;;;;;6.20;5.70;;;16.00;36.20;;;;;;10425248;28;20485;-76
2021/09/19 01:06:17;;;;;;;5.97;5.47;;;16.00;36.00;;;;;;10425036;28;20562;-76
2021/09/19 01:11:21;;;;;;;5.20;4.90;;;15.90;36.10;;;;;;10427560;28;20233;-76
2021/09/19 01:16:24;;;;;;;5.77;5.33;;;15.70;35.70;;;;;;10422987;28;20583;-75
2021/09/19 01:21:29;;;;;;;6.13;5.73;;;15.60;35.90;;;;;;10423133;28;20641;-76
2021/09/19 01:26:34;;;;;;;6.33;5.90;;;15.50;36.50;;;;;;10428234;28;20240;-76
2021/09/19 01:31:38;;;;;;;5.90;5.50;;;15.40;36.70;;;;;;10428549;28;20790;-75
2021/09/19 01:36:41;;;;;;;7.93;7.20;;;15.40;36.60;;;;;;10424548;28;20786;-76
2021/09/19 01:41:49;;;;;;;7.17;6.57;;;15.40;36.70;;;;;;10426031;28;20571;-76
2021/09/19 01:46:52;;;;;;;6.10;5.70;;;15.40;37.00;;;;;;10423423;28;20225;-77
2021/09/19 01:51:55;;;;;;;5.60;5.20;;;15.40;36.70;;;;;;10417024;28;20224;-76
2021/09/19 01:57:03;;;;;;;5.00;4.60;;;15.30;36.60;;;;;;10419618;28;20229;-76
2021/09/19 02:02:06;;;;;;;5.43;4.93;;;15.30;37.00;;;;;;10419310;28;20227;-76
2021/09/19 02:07:09;;;;;;;4.37;4.07;;;15.30;36.50;;;;;;10418294;28;20225;-76
2021/09/19 02:12:14;;;;;;;3.83;3.63;;;15.30;36.70;;;;;;10422015;28;20224;-76
2021/09/19 02:17:18;;;;;;;3.80;3.50;;;15.30;36.60;;;;;;10420027;28;20225;-76
2021/09/19 02:22:21;;;;;;;4.93;4.30;;;15.30;36.50;;;;;;10419075;28;20232;-76
2021/09/19 02:27:25;;;;;;;3.70;3.50;;;15.20;36.50;;;;;;10418153;28;20232;-76
2021/09/19 02:32:28;;;;;;;4.27;3.97;;;15.20;36.60;;;;;;10418733;28;20240;-76
2021/09/19 02:37:32;;;;;;;4.83;4.43;;;15.10;36.40;;;;;;10420576;28;20225;-76
2021/09/19 02:42:38;;;;;;;6.83;6.13;;;15.10;36.40;;;;;;10419252;28;20225;-76
2021/09/19 02:47:41;;;;;;;10.60;7.50;;;15.10;36.90;;;;;;10417632;28;20236;-76
2021/09/19 02:52:45;;;;;;;7.33;6.73;;;15.00;36.80;;;;;;10422004;28;20606;-76
2021/09/19 02:57:49;;;;;;;6.47;5.97;;;15.00;36.90;;;;;;10416794;28;20225;-76
2021/09/19 03:02:54;;;;;;;5.53;5.10;;;15.00;37.10;;;;;;10422454;28;20226;-77
2021/09/19 03:07:57;;;;;;;6.70;6.10;;;14.90;36.80;;;;;;10416669;28;20232;-76
2021/09/19 03:13:02;;;;;;;4.87;4.50;;;14.80;36.70;;;;;;10416352;28;20232;-76
2021/09/19 03:18:05;;;;;;;7.37;6.77;;;14.80;36.80;;;;;;10418232;28;20645;-76
2021/09/19 03:23:09;;;;;;;9.37;7.60;;;14.70;36.80;;;;;;10420732;28;20232;-76
2021/09/19 03:28:13;;;;;;;6.30;5.80;;;14.60;36.70;;;;;;10418830;28;20234;-76
2021/09/19 03:33:16;;;;;;;7.67;7.00;;;14.50;37.10;;;;;;10415713;28;20229;-76
2021/09/19 03:38:20;;;;;;;8.90;8.10;;;14.50;37.00;;;;;;10422037;28;20252;-76
2021/09/19 03:43:24;;;;;;;8.47;7.67;;;14.50;37.20;;;;;;10416521;28;20232;-76
2021/09/19 03:48:27;;;;;;;8.20;7.50;;;14.40;37.30;;;;;;10414304;28;20234;-76
2021/09/19 03:53:30;;;;;;;7.30;6.70;;;14.40;37.00;;;;;;10414834;28;20225;-76
2021/09/19 03:58:35;;;;;;;8.30;7.40;;;14.40;36.80;;;;;;10415267;28;20704;-76
2021/09/19 04:03:38;;;;;;;7.50;6.90;;;14.30;37.00;;;;;;10417924;28;20735;-76
2021/09/19 04:08:41;;;;;;;10.70;7.17;;;14.20;37.00;;;;;;10415410;28;20766;-76
2021/09/19 04:13:46;;;;;;;6.93;6.43;;;14.20;37.00;;;;;;10414358;28;20217;-76
2021/09/19 04:18:49;;;;;;;6.40;5.90;;;14.10;37.20;;;;;;10424531;28;20229;-76
2021/09/19 04:23:52;;;;;;;5.03;4.63;;;14.10;37.20;;;;;;10423847;28;20221;-76
2021/09/19 04:28:57;;;;;;;5.20;4.70;;;14.00;37.20;;;;;;10423847;28;20783;-76
2021/09/19 04:34:00;;;;;;;5.80;5.30;;;14.00;37.40;;;;;;10426238;28;20233;-76
2021/09/19 04:39:04;;;;;;;5.90;5.50;;;14.00;37.30;;;;;;10426061;28;20299;-76
2021/09/19 04:44:08;;;;;;;5.63;5.23;;;14.00;37.40;;;;;;10425648;28;20232;-76
2021/09/19 04:49:11;;;;;;;5.30;4.90;;;14.00;37.40;;;;;;10421668;28;20221;-75
2021/09/19 04:54:14;;;;;;;5.40;4.90;;;13.90;36.90;;;;;;10425314;28;20891;-76
2021/09/19 04:59:19;;;;;;;5.27;4.80;;;13.90;37.10;;;;;;10425468;28;20240;-76
2021/09/19 05:04:22;;;;;;;4.57;4.27;;;13.80;37.30;;;;;;10420862;28;20307;-76
2021/09/19 05:09:26;;;;;;;4.80;4.40;;;13.80;37.20;;;;;;10425872;28;20234;-76
2021/09/19 05:14:30;;;;;;;4.73;4.40;;;13.70;37.40;;;;;;10423800;28;20236;-76
2021/09/19 05:19:33;;;;;;;4.93;4.63;;;13.60;37.80;;;;;;10424431;28;20237;-76
2021/09/19 05:24:37;;;;;;;4.83;4.47;;;13.60;37.70;;;;;;10426495;28;20217;-76
2021/09/19 05:29:41;;;;;;;7.03;6.43;;;13.60;37.70;;;;;;10425714;28;20232;-76
2021/09/19 05:34:44;;;;;;;5.83;5.40;;;13.60;38.10;;;;;;10425787;28;20225;-77
2021/09/19 05:39:48;;;;;;;4.87;4.57;;;13.60;38.00;;;;;;10424763;28;20701;-76
2021/09/19 05:44:52;;;;;;;5.10;4.70;;;13.50;38.10;;;;;;10427399;28;20217;-77
2021/09/19 05:49:55;;;;;;;4.70;4.40;;;13.50;38.60;;;;;;10422052;28;20229;-76
2021/09/19 05:54:58;;;;;;;5.30;4.67;;;13.50;38.40;;;;;;10422218;28;20235;-76
2021/09/19 06:00:04;;;;;;;4.87;4.57;;;13.60;38.80;;;;;;10449039;22;20232;-74
2021/09/19 06:05:08;;;;;;;6.20;5.70;;;13.60;39.40;;;;;;10448693;28;20217;-74
2021/09/19 06:10:12;;;;;;;6.47;5.87;;;13.70;39.20;;;;;;10452055;28;20787;-74
2021/09/19 06:15:17;;;;;;;5.83;5.33;;;13.80;39.40;;;;;;10456052;28;20235;-74
2021/09/19 06:20:20;;;;;;;7.00;6.30;;;13.80;39.90;;;;;;10444116;28;20310;-72
2021/09/19 06:25:23;;;;;;;7.47;6.77;;;13.80;39.70;;;;;;10455791;28;20703;-72
2021/09/19 06:30:28;;;;;;;7.50;6.83;;;13.90;40.10;;;;;;10446689;28;20767;-72
2021/09/19 06:35:31;;;;;;;10.13;9.10;;;14.00;41.00;;;;;;10439231;28;20229;-73
2021/09/19 06:40:34;;;;;;;9.63;8.70;;;14.10;40.80;;;;;;10457085;28;20713;-71
2021/09/19 06:45:39;;;;;;;9.63;8.63;;;14.10;41.00;;;;;;10455621;28;20224;-72
2021/09/19 06:50:42;;;;;;;9.60;8.30;;;14.20;41.90;;;;;;10447925;28;20247;-72
2021/09/19 06:55:46;;;;;;;10.23;9.33;;;14.30;41.50;;;;;;10461452;28;20601;-71
2021/09/19 07:00:50;;;;;;;12.63;11.33;;;14.40;41.60;;;;;;10441179;28;20239;-71
2021/09/19 07:05:53;;;;;;;11.90;10.70;;;14.50;42.70;;;;;;10445990;28;20232;-72
2021/09/19 07:10:57;;;;;;;11.13;10.07;;;14.60;41.90;;;;;;10455295;28;20224;-71
2021/09/19 07:16:01;;;;;;;12.90;11.70;;;14.70;42.20;;;;;;10434564;28;20225;-72
2021/09/19 07:21:04;;;;;;;12.03;10.93;;;14.80;43.30;;;;;;10431886;28;20229;-72
2021/09/19 07:26:08;;;;;;;12.10;11.00;;;14.90;42.60;;;;;;10436405;28;20228;-72
2021/09/19 07:31:13;;;;;;;12.03;11.03;;;15.00;42.80;;;;;;10426728;28;20233;-72
2021/09/19 07:36:17;;;;;;;11.57;10.50;;;15.10;43.80;;;;;;10436014;28;20664;-72
2021/09/19 07:41:21;;;;;;;10.00;9.20;;;15.30;43.20;;;;;;10432616;28;20235;-72
2021/09/19 07:46:26;;;;;;;9.43;8.53;;;15.40;43.40;;;;;;10442303;28;20800;-72
2021/09/19 07:51:30;;;;;;;8.50;7.80;;;15.60;44.30;;;;;;10438344;28;20225;-72
2021/09/19 07:56:33;;;;;;;8.83;8.17;;;15.80;44.00;;;;;;10447166;28;20240;-73
2021/09/19 08:01:37;;;;;;;8.80;8.00;;;16.00;44.10;;;;;;10441820;28;20327;-72
2021/09/19 08:06:41;;;;;;;8.70;7.93;;;16.20;45.00;;;;;;10440342;28;20299;-72
2021/09/19 08:11:44;;;;;;;7.20;6.67;;;16.50;44.40;;;;;;10434566;28;20235;-72
2021/09/19 08:16:49;;;;;;;6.33;5.93;;;16.70;44.70;;;;;;10433807;28;20232;-72
2021/09/19 08:21:52;;;;;;;6.03;5.53;;;17.00;45.20;;;;;;10440091;28;20237;-72
2021/09/19 08:26:55;;;;;;;6.00;5.60;;;17.30;44.30;;;;;;10440395;28;20233;-72
2021/09/19 08:32:00;;;;;;;5.33;4.93;;;17.70;44.30;;;;;;10436748;28;20229;-73
2021/09/19 08:37:04;;;;;;;5.10;4.70;;;18.00;44.30;;;;;;10444478;28;20245;-72
2021/09/19 08:42:07;;;;;;;4.80;4.40;;;18.30;43.80;;;;;;10440429;28;20233;-73
2021/09/19 08:47:14;;;;;;;4.33;4.03;;;18.60;43.50;;;;;;10439607;28;20217;-72
2021/09/19 08:52:17;;;;;;;4.17;3.87;;;18.90;43.00;;;;;;10435521;28;20231;-72
2021/09/19 08:57:20;;;;;;;4.10;3.90;;;19.20;42.60;;;;;;10438848;28;20231;-73
2021/09/19 09:02:25;;;;;;;4.43;3.70;;;19.30;42.10;;;;;;10434669;28;20636;-72
2021/09/19 09:07:28;;;;;;;4.40;4.10;;;19.50;41.70;;;;;;10447649;28;20648;-72
2021/09/19 09:12:33;;;;;;;4.00;3.70;;;19.70;41.60;;;;;;10442868;28;20235;-72
2021/09/19 09:17:40;;;;;;;3.97;3.67;;;19.90;41.50;;;;;;10446241;28;20573;-72
2021/09/19 09:22:43;;;;;;;3.63;3.43;;;20.00;40.80;;;;;;10448701;28;20262;-72
2021/09/19 09:27:48;;;;;;;3.40;3.10;;;20.10;40.70;;;;;;10448153;28;20232;-72
2021/09/19 09:32:56;;;;;;;3.43;3.23;;;20.30;40.60;;;;;;10447005;28;20228;-72
2021/09/19 09:37:59;;;;;;;3.03;2.83;;;20.40;39.90;;;;;;10442840;28;20225;-72
2021/09/19 09:43:08;;;;;;;3.20;3.00;;;20.60;39.90;;;;;;10436841;28;20623;-72
2021/09/19 09:48:38;;;;;;;2.60;2.40;;;20.80;38.70;;;;;;10443498;28;20229;-72
2021/09/19 09:53:42;;;;;;;2.50;2.40;;;20.90;39.00;;;;;;10424356;28;20232;-72
2021/09/19 09:58:45;;;;;;;2.60;2.50;;;21.00;38.80;;;;;;10419176;28;20236;-73
2021/09/19 10:03:51;;;;;;;2.37;2.27;;;21.10;38.80;;;;;;10429020;28;20369;-73
2021/09/19 10:08:54;;;;;;;2.90;2.70;;;21.20;38.70;;;;;;10430011;28;20224;-72
2021/09/19 10:13:58;;;;;;;3.00;2.80;;;21.40;38.80;;;;;;10428864;28;20251;-72
2021/09/19 10:19:03;;;;;;;4.00;2.33;;;21.50;38.00;;;;;;10430203;28;20274;-72
2021/09/19 10:24:06;;;;;;;2.40;2.30;;;21.70;38.00;;;;;;10431816;28;20228;-73
2021/09/19 10:29:19;;;;;;;2.67;2.57;;;21.80;38.10;;;;;;10448009;28;20235;-71
2021/09/19 10:34:28;;;;;;;90.30;83.00;;;21.80;37.00;;;;;;10442010;28;21837;-71
2021/09/19 10:39:36;;;;;;;6.60;6.10;;;21.80;36.80;;;;;;10439891;28;20236;-75
2021/09/19 10:45:03;;;;;;;3.20;3.00;;;21.90;37.40;;;;;;10435933;28;20225;-74
2021/09/19 10:50:24;;;;;;;3.00;2.80;;;22.00;37.00;;;;;;10433026;28;20229;-71
2021/09/19 10:55:37;;;;;;;2.70;2.50;;;22.10;36.10;;;;;;10434042;28;20227;-71
2021/09/19 11:00:44;;;;;;;2.80;2.60;;;22.20;36.70;;;;;;10432690;28;20239;-72
2021/09/19 11:05:51;;;;;;;2.70;2.60;;;22.20;36.80;;;;;;10441654;28;20239;-70
2021/09/19 11:11:10;;;;;;;54.93;50.73;;;22.30;35.80;;;;;;10441478;28;20319;-72
2021/09/19 11:16:26;;;;;;;121.67;40.20;;;22.30;35.80;;;;;;10432607;28;20228;-73
2021/09/19 11:21:34;;;;;;;446.00;259.97;;;22.30;36.30;;;;;;10434772;28;20287;-71
2021/09/19 11:26:40;;;;;;;295.03;71.57;;;22.40;35.30;;;;;;10440382;28;20811;-71
2021/09/19 11:31:45;;;;;;;49.87;35.97;;;22.50;35.80;;;;;;10436593;28;20243;-71
2021/09/19 11:36:52;;;;;;;47.90;42.70;;;22.60;36.00;;;;;;10431674;28;20240;-71
2021/09/19 11:41:56;;;;;;;9.20;7.17;;;22.70;35.40;;;;;;10436539;28;20225;-72
2021/09/19 11:47:01;;;;;;;14.30;13.13;;;22.70;35.40;;;;;;10428808;28;20213;-71
2021/09/19 11:52:06;;;;;;;14.87;13.97;;;22.70;35.70;;;;;;10437322;28;20220;-71
2021/09/19 11:57:14;;;;;;;2.67;2.47;;;22.70;35.10;;;;;;10441977;28;20712;-73
2021/09/19 12:02:18;;;;;;;4.03;3.73;;;22.70;35.30;;;;;;10434597;28;20316;-73
2021/09/19 12:07:25;;;;;;;6.73;6.30;;;22.80;35.30;;;;;;10436809;28;20756;-73
2021/09/19 12:12:31;;;;;;;2.50;2.30;;;22.90;34.50;;;;;;10436913;28;20225;-73
2021/09/19 12:17:37;;;;;;;4.70;4.40;;;23.00;34.60;;;;;;10429549;28;20240;-74
2021/09/19 12:22:42;;;;;;;2.37;2.27;;;23.00;35.00;;;;;;10429592;28;20698;-73
2021/09/19 12:27:47;;;;;;;3.63;3.43;;;23.00;34.10;;;;;;10432132;28;20733;-73
2021/09/19 12:32:53;;;;;;;2.77;2.60;;;23.10;34.10;;;;;;10427818;28;20240;-73
2021/09/19 12:37:58;;;;;;;36.37;33.40;;;23.00;34.30;;;;;;10436781;28;20226;-73
2021/09/19 12:43:06;;;;;;;14.73;13.57;;;23.00;33.70;;;;;;10425184;28;20237;-73
2021/09/19 12:48:10;;;;;;;508.07;388.20;;;22.90;33.50;;;;;;10428434;28;20719;-73
2021/09/19 12:53:23;;;;;;;268.47;132.87;;;22.90;34.50;;;;;;10424455;28;20826;-74
2021/09/19 12:58:27;;;;;;;53.67;28.60;;;22.90;33.70;;;;;;10425701;28;20890;-72
2021/09/19 13:03:30;;;;;;;17.97;12.63;;;22.90;34.40;;;;;;10420680;28;20910;-73
2021/09/19 13:08:35;;;;;;;17.03;15.53;;;22.90;34.30;;;;;;10428877;28;20224;-73
2021/09/19 13:13:39;;;;;;;11.90;11.00;;;22.90;34.00;;;;;;10428754;28;20228;-73
2021/09/19 13:18:42;;;;;;;3.40;3.20;;;22.90;34.40;;;;;;10427530;28;20232;-73
2021/09/19 13:23:46;;;;;;;28.50;26.20;;;22.90;34.20;;;;;;10422117;28;20229;-73
2021/09/19 13:28:49;;;;;;;3.17;2.97;;;22.90;33.90;;;;;;10425015;28;20232;-73
2021/09/19 13:33:53;;;;;;;10.87;10.17;;;22.90;34.20;;;;;;10423981;28;20307;-73
2021/09/19 13:38:58;;;;;;;2.70;2.50;;;22.90;34.20;;;;;;10429387;28;20239;-73
2021/09/19 13:44:01;;;;;;;20.53;19.03;;;22.90;33.60;;;;;;10423237;28;20758;-73
2021/09/19 13:49:06;;;;;;;2.60;2.50;;;22.90;33.90;;;;;;10430558;28;20225;-73
2021/09/19 13:54:11;;;;;;;2.40;2.30;;;23.00;33.80;;;;;;10437895;28;20246;-73
2021/09/19 13:59:14;;;;;;;6.43;5.93;;;23.10;33.00;;;;;;10429102;28;20229;-73
2021/09/19 14:04:18;;;;;;;2.20;2.10;;;23.00;33.50;;;;;;10438374;28;20592;-73
2021/09/19 14:09:22;;;;;;;6.37;5.87;;;23.10;33.30;;;;;;10439660;28;20229;-74
2021/09/19 14:14:26;;;;;;;2.20;2.10;;;23.10;32.50;;;;;;10435878;28;20236;-74
2021/09/19 14:19:29;;;;;;;3.63;2.37;;;23.10;33.10;;;;;;10434503;28;20324;-73
2021/09/19 14:24:34;;;;;;;2.23;2.13;;;23.10;33.00;;;;;;10431633;28;20244;-73
2021/09/19 14:29:38;;;;;;;4.27;3.97;;;23.10;32.80;;;;;;10437656;28;20256;-73
2021/09/19 14:34:41;;;;;;;2.47;2.37;;;23.10;33.30;;;;;;10435056;28;20228;-73
2021/09/19 14:39:45;;;;;;;3.50;3.17;;;23.10;33.30;;;;;;10433922;28;20225;-73
2021/09/19 14:44:48;;;;;;;2.77;2.63;;;23.00;33.30;;;;;;10437406;28;20276;-73
2021/09/19 14:49:52;;;;;;;5.30;4.93;;;23.00;33.60;;;;;;10432031;28;20236;-73
2021/09/19 14:54:56;;;;;;;2.40;2.30;;;22.90;33.50;;;;;;10428283;28;20233;-73
2021/09/19 14:59:59;;;;;;;3.20;3.00;;;22.90;33.30;;;;;;10426689;28;20226;-72
2021/09/19 15:05:03;;;;;;;3.87;3.00;;;22.80;33.90;;;;;;10431527;28;20221;-72
2021/09/19 15:10:10;;;;;;;4.20;3.90;;;22.80;33.60;;;;;;10436544;28;20228;-72
2021/09/19 15:15:13;;;;;;;3.00;2.80;;;22.70;33.00;;;;;;10431722;28;21398;-72
2021/09/19 15:20:17;;;;;;;5.50;5.10;;;22.70;33.40;;;;;;10431232;28;20910;-72
2021/09/19 15:25:22;;;;;;;2.60;2.50;;;22.60;33.40;;;;;;10431123;28;20231;-72
2021/09/19 15:30:26;;;;;;;3.33;3.13;;;22.60;33.40;;;;;;10434680;28;20251;-72
2021/09/19 15:35:29;;;;;;;2.33;2.23;;;22.50;33.40;;;;;;10429459;28;20224;-72
2021/09/19 15:40:55;;;;;;;2.10;2.00;;;22.50;33.60;;;;;;10435062;28;20232;-72
2021/09/19 15:46:00;;;;;;;2.30;2.20;;;22.40;33.00;;;;;;10426362;28;20301;-72
2021/09/19 15:51:04;;;;;;;2.00;1.90;;;22.40;33.10;;;;;;10430260;28;20241;-72
2021/09/19 15:56:11;;;;;;;3.53;3.33;;;22.30;33.20;;;;;;10426633;28;20234;-72
2021/09/19 16:01:17;;;;;;;2.20;2.10;;;22.20;33.30;;;;;;10434716;28;20245;-72
2021/09/19 16:06:20;;;;;;;2.10;2.00;;;22.20;33.20;;;;;;10432798;28;20221;-72
2021/09/19 16:11:25;;;;;;;2.10;2.00;;;22.10;33.20;;;;;;10429814;28;20230;-72
2021/09/19 16:16:29;;;;;;;2.50;2.30;;;22.10;32.90;;;;;;10436966;28;20324;-72
2021/09/19 16:21:32;;;;;;;9.13;8.60;;;22.00;33.20;;;;;;10429864;28;20724;-72
2021/09/19 16:26:37;;;;;;;13.13;12.07;;;21.90;33.40;;;;;;10435429;28;20737;-72
2021/09/19 16:31:40;;;;;;;2.77;2.57;;;21.80;33.30;;;;;;10432169;28;20273;-72
2021/09/19 16:36:43;;;;;;;2.87;2.60;;;21.70;33.20;;;;;;10433497;28;20234;-72
2021/09/19 16:41:48;;;;;;;2.37;2.27;;;21.70;33.40;;;;;;10435711;28;20254;-72
2021/09/19 16:46:51;;;;;;;2.07;1.97;;;21.70;33.40;;;;;;10437671;28;20240;-72
2021/09/19 16:51:55;;;;;;;2.30;2.20;;;21.60;33.30;;;;;;10432558;28;20232;-72
2021/09/19 16:57:00;;;;;;;2.37;2.27;;;21.50;33.40;;;;;;10433033;28;20712;-72
2021/09/19 17:02:03;;;;;;;2.50;2.30;;;21.50;33.50;;;;;;10428960;28;20327;-72
2021/09/19 17:07:07;;;;;;;2.30;2.20;;;21.40;33.50;;;;;;10430559;28;20278;-72
2021/09/19 17:12:11;;;;;;;2.40;2.20;;;21.30;33.50;;;;;;10427586;28;20237;-72
2021/09/19 17:17:15;;;;;;;2.43;2.27;;;21.20;33.60;;;;;;10429274;28;20712;-71
2021/09/19 17:22:18;;;;;;;2.90;2.47;;;21.20;33.50;;;;;;10431302;28;20228;-72
2021/09/19 17:27:22;;;;;;;2.83;2.63;;;21.10;33.30;;;;;;10437926;28;20221;-72
2021/09/19 17:32:26;;;;;;;2.10;2.00;;;21.10;33.40;;;;;;10433022;28;20229;-73
2021/09/19 17:37:29;;;;;;;2.57;2.37;;;21.00;33.50;;;;;;10437331;28;20232;-73
2021/09/19 17:42:35;;;;;;;2.53;2.43;;;20.90;33.40;;;;;;10431953;28;20232;-72
2021/09/19 17:47:40;;;;;;;2.77;2.57;;;20.80;33.60;;;;;;10433254;28;20225;-72
2021/09/19 17:52:43;;;;;;;3.80;3.50;;;20.70;33.70;;;;;;10430687;28;20241;-72
2021/09/19 17:57:47;;;;;;;4.37;3.10;;;20.70;33.80;;;;;;10428657;28;20233;-72
2021/09/19 18:02:51;;;;;;;3.07;2.87;;;20.60;33.50;;;;;;10430986;28;20236;-72
2021/09/19 18:07:54;;;;;;;3.10;2.90;;;20.50;33.50;;;;;;10431739;28;20233;-72
2021/09/19 18:12:59;;;;;;;3.17;2.97;;;20.40;33.60;;;;;;10432632;28;20222;-72
2021/09/19 18:18:02;;;;;;;3.43;3.23;;;20.30;33.70;;;;;;10432632;28;20217;-72
2021/09/19 18:23:05;;;;;;;3.03;2.83;;;20.20;33.50;;;;;;10429721;28;20236;-72
2021/09/19 18:28:14;;;;;;;3.30;3.10;;;20.10;33.50;;;;;;10435175;28;20221;-72
2021/09/19 18:33:17;;;;;;;3.40;3.10;;;20.10;33.70;;;;;;10432243;28;20233;-72
2021/09/19 18:38:22;;;;;;;3.53;3.27;;;20.00;33.80;;;;;;10430784;28;20228;-72
2021/09/19 18:43:26;;;;;;;2.97;2.77;;;19.90;33.80;;;;;;10428911;28;20225;-72
2021/09/19 18:48:30;;;;;;;3.20;3.00;;;19.80;33.90;;;;;;10432743;28;20232;-72
2021/09/19 18:53:33;;;;;;;3.30;3.10;;;19.80;33.80;;;;;;10431606;28;20224;-72
2021/09/19 18:58:38;;;;;;;2.90;2.70;;;19.60;33.70;;;;;;10425897;28;20228;-72
2021/09/19 19:03:41;;;;;;;3.10;2.90;;;19.50;33.80;;;;;;10416654;28;20621;-72
2021/09/19 19:08:44;;;;;;;3.40;3.20;;;19.40;33.80;;;;;;10412182;28;20898;-71
2021/09/19 19:13:49;;;;;;;3.43;3.10;;;19.30;34.00;;;;;;10414268;28;20233;-72
2021/09/19 19:18:52;;;;;;;3.33;3.13;;;19.30;34.30;;;;;;10413201;28;20227;-72
2021/09/19 19:23:56;;;;;;;3.90;3.60;;;19.20;34.30;;;;;;10414027;28;20231;-72
2021/09/19 19:29:01;;;;;;;3.60;3.40;;;19.20;34.50;;;;;;10414550;28;20221;-72
2021/09/19 19:34:04;;;;;;;3.50;3.23;;;19.10;34.60;;;;;;10413735;28;20677;-73
2021/09/19 19:39:07;;;;;;;3.20;3.00;;;19.10;34.70;;;;;;10409424;28;20721;-72
2021/09/19 19:44:12;;;;;;;2.90;2.70;;;19.00;34.50;;;;;;10400217;28;20244;-71
2021/09/19 19:49:15;;;;;;;3.10;2.90;;;19.00;34.80;;;;;;10424545;28;20589;-71
2021/09/19 19:54:19;;;;;;;3.40;3.20;;;19.00;34.80;;;;;;10421732;28;20654;-72
2021/09/19 19:59:23;;;;;;;3.60;3.30;;;19.00;34.80;;;;;;10425953;28;20241;-71
2021/09/19 20:04:27;;;;;;;3.93;3.53;;;18.90;34.90;;;;;;10425059;28;20233;-72
2021/09/19 20:09:30;;;;;;;3.37;3.17;;;18.80;34.70;;;;;;10428287;28;20259;-72
2021/09/19 20:14:38;;;;;;;3.40;3.20;;;18.80;34.80;;;;;;10429979;28;20228;-72
2021/09/19 20:19:41;;;;;;;3.73;3.53;;;18.70;35.10;;;;;;10426296;28;20320;-72
2021/09/19 20:24:45;;;;;;;3.50;3.30;;;18.60;34.70;;;;;;10419262;28;20236;-72
2021/09/19 20:29:50;;;;;;;4.13;3.83;;;18.60;35.20;;;;;;10418948;28;20740;-71
2021/09/19 20:34:53;;;;;;;4.03;3.73;;;18.50;35.20;;;;;;10418554;28;20225;-71
2021/09/19 20:39:56;;;;;;;5.43;4.10;;;18.40;35.10;;;;;;10421027;28;20214;-72
2021/09/19 20:45:01;;;;;;;3.97;3.70;;;18.30;35.00;;;;;;10425434;28;20220;-72
2021/09/19 20:50:05;;;;;;;4.37;4.07;;;18.30;35.70;;;;;;10425572;28;20213;-72
2021/09/19 20:55:10;;;;;;;4.47;4.07;;;18.20;34.90;;;;;;10424728;28;20229;-72
2021/09/19 21:00:15;;;;;;;4.50;4.20;;;18.10;34.80;;;;;;10425818;28;20253;-72
2021/09/19 21:05:18;;;;;;;4.30;4.00;;;18.10;35.10;;;;;;10424849;28;20293;-73
2021/09/19 21:10:21;;;;;;;4.67;4.37;;;18.00;34.70;;;;;;10422071;28;20236;-72
2021/09/19 21:15:26;;;;;;;4.57;4.23;;;18.00;35.10;;;;;;10420717;28;20240;-71
2021/09/19 21:20:30;;;;;;;4.47;4.17;;;17.90;35.40;;;;;;10415975;28;20233;-71
2021/09/19 21:25:33;;;;;;;4.80;4.50;;;17.90;35.20;;;;;;10420858;28;20225;-71
2021/09/19 21:30:38;;;;;;;5.17;4.77;;;17.80;35.40;;;;;;10421863;28;20224;-72
2021/09/19 21:35:41;;;;;;;4.80;4.50;;;17.80;35.80;;;;;;10422387;28;20910;-71
2021/09/19 21:40:44;;;;;;;4.53;4.13;;;17.70;35.60;;;;;;10416186;28;20225;-71
2021/09/19 21:45:49;;;;;;;5.10;4.70;;;17.70;35.80;;;;;;10414239;28;20740;-71
2021/09/19 21:50:53;;;;;;;5.17;4.77;;;17.60;36.00;;;;;;10414374;28;20228;-72
2021/09/19 21:55:56;;;;;;;5.57;5.17;;;17.60;35.80;;;;;;10416889;28;20229;-72
2021/09/19 22:01:01;;;;;;;5.67;5.27;;;17.50;35.80;;;;;;10415082;28;20224;-71
2021/09/19 22:06:04;;;;;;;5.53;5.10;;;17.50;36.20;;;;;;10420701;28;21123;-72
2021/09/19 22:11:20;;;;;;;5.60;5.20;;;17.50;36.00;;;;;;10420892;28;20966;-72
2021/09/19 22:16:25;;;;;;;5.67;5.17;;;17.40;36.00;;;;;;10431327;28;20283;-73
2021/09/19 22:21:29;;;;;;;5.60;5.10;;;17.40;36.00;;;;;;10415789;28;20601;-72
2021/09/19 22:26:32;;;;;;;5.17;4.70;;;17.40;36.00;;;;;;10422053;28;20355;-72
2021/09/19 22:31:39;;;;;;;5.00;4.60;;;17.30;36.00;;;;;;10417894;28;20316;-72
2021/09/19 22:36:42;;;;;;;5.60;5.00;;;17.40;36.50;;;;;;10417023;28;20232;-72
2021/09/19 22:41:47;;;;;;;6.07;5.50;;;17.40;36.20;;;;;;10416623;28;20229;-72
2021/09/19 22:46:52;;;;;;;5.33;4.93;;;17.30;36.20;;;;;;10414737;28;20229;-72
2021/09/19 22:51:55;;;;;;;5.50;5.10;;;17.30;36.30;;;;;;10414352;28;20611;-72
2021/09/19 22:56:59;;;;;;;6.10;5.60;;;17.30;36.30;;;;;;10417121;28;20217;-72
2021/09/19 23:02:04;;;;;;;6.17;5.63;;;17.30;36.30;;;;;;10420929;28;20213;-73
2021/09/19 23:07:08;;;;;;;5.20;4.80;;;17.30;36.60;;;;;;10415393;28;20751;-72
2021/09/19 23:12:11;;;;;;;6.63;6.07;;;17.30;36.50;;;;;;10420508;28;20220;-72
2021/09/19 23:17:15;;;;;;;6.47;5.97;;;17.30;36.40;;;;;;10415706;28;20226;-72
2021/09/19 23:22:18;;;;;;;6.43;5.93;;;17.30;36.50;;;;;;10416422;28;20231;-72
2021/09/19 23:27:22;;;;;;;6.53;6.03;;;17.30;36.50;;;;;;10416426;28;20314;-71
2021/09/19 23:32:26;;;;;;;6.80;6.20;;;17.30;36.60;;;;;;10417416;28;20248;-72
2021/09/19 23:37:29;;;;;;;6.00;5.50;;;17.30;36.70;;;;;;10417607;28;20226;-72
2021/09/19 23:42:32;;;;;;;6.37;5.87;;;17.30;36.50;;;;;;10415798;28;20592;-72
2021/09/19 23:47:37;;;;;;;7.23;6.67;;;17.30;36.60;;;;;;10414660;28;20347;-72
2021/09/19 23:52:41;;;;;;;6.90;6.30;;;17.20;36.80;;;;;;10415403;28;20237;-72
2021/09/19 23:57:45;;;;;;;7.43;6.83;;;17.20;36.50;;;;;;10413066;28;20226;-72
